Meteorología y climatología de Navarra
Datos de la estación - Meteo Navarra

Estación de Eltzaburu GN

Altitud 588 m.


Datos desde el 15/01/2020 hasta el 16/01/2020 en horario solar
Los datos son PROVISIONALES

Anterior Página 1 de 1 Siguiente Descargar: Formato para Excel 2000 o superior   Formato csv   Formato para OpenOffice Calc
Fecha Temperatura Humedad relativa Radiación global Insolación Precipitación Vel. viento 10 m Vel. viento 10 m Dir. viento 10 m
ºC % W/m² s l/m² m/s km/h º
15/01/2020 0:00 5.1 68 0.0 0 0.0 2.2 7.9 240
15/01/2020 0:10 5.0 69 0.0 0 0.0 2.8 10.2 224
15/01/2020 0:20 4.8 69 0.0 0 0.0 2.2 7.8 254
15/01/2020 0:30 4.7 70 0.0 0 0.0 3.4 12.2 243
15/01/2020 0:40 5.4 67 0.0 0 0.0 4.4 15.9 197
15/01/2020 0:50 5.3 68 0.0 0 0.0 3.9 14.1 205
15/01/2020 1:00 5.5 67 0.0 0 0.0 4.4 15.7 199
15/01/2020 1:10 5.5 66 0.0 0 0.0 5.6 20.3 188
15/01/2020 1:20 5.7 65 0.0 0 0.0 6.1 22.0 188
15/01/2020 1:30 5.7 66 0.0 0 0.0 5.6 20.0 184
15/01/2020 1:40 5.5 66 0.0 0 0.0 5.1 18.4 191
15/01/2020 1:50 5.4 67 0.0 0 0.0 5.8 21.0 187
15/01/2020 2:00 5.3 67 0.0 0 0.0 5.7 20.3 189
15/01/2020 2:10 5.2 68 0.0 0 0.0 6.1 22.0 193
15/01/2020 2:20 5.1 68 0.0 0 0.0 6.0 21.6 188
15/01/2020 2:30 5.1 68 0.0 0 0.0 6.5 23.4 202
15/01/2020 2:40 5.0 69 0.0 0 0.0 5.4 19.5 198
15/01/2020 2:50 5.0 69 0.0 0 0.0 5.3 18.9 197
15/01/2020 3:00 5.0 69 0.0 0 0.0 5.1 18.3 188
15/01/2020 3:10 5.2 69 0.0 0 0.0 5.3 18.9 184
15/01/2020 3:20 5.4 68 0.0 0 0.0 5.1 18.3 183
15/01/2020 3:30 5.3 68 0.0 0 0.0 5.8 20.8 182
15/01/2020 3:40 5.4 68 0.0 0 0.0 5.7 20.6 174
15/01/2020 3:50 5.5 68 0.0 0 0.0 6.4 23.0 180
15/01/2020 4:00 5.7 67 0.0 0 0.0 7.0 25.1 168
15/01/2020 4:10 5.5 68 0.0 0 0.0 7.3 26.4 174
15/01/2020 4:20 5.3 69 0.0 0 0.0 7.3 26.1 172
15/01/2020 4:30 5.2 69 0.0 0 0.0 7.2 25.9 176
15/01/2020 4:40 5.2 69 0.0 0 0.0 8.0 28.9 174
15/01/2020 4:50 5.2 69 0.0 0 0.0 7.8 27.9 173
15/01/2020 5:00 5.2 70 0.0 0 0.0 7.4 26.7 174
15/01/2020 5:10 5.3 69 0.0 0 0.0 8.7 31.3 171
15/01/2020 5:20 5.3 69 0.0 0 0.0 8.7 31.4 174
15/01/2020 5:30 5.3 69 0.0 0 0.0 6.6 23.8 174
15/01/2020 5:40 5.4 68 0.0 0 0.0 5.3 19.2 168
15/01/2020 5:50 5.3 69 0.0 0 0.0 3.1 11.1 147
15/01/2020 6:00 5.2 69 0.0 0 0.0 1.0 3.7 46
15/01/2020 6:10 5.1 70 0.0 0 0.0 1.2 4.2 11
15/01/2020 6:20 5.0 70 0.0 0 0.0 1.5 5.4 183
15/01/2020 6:30 5.4 69 0.0 0 0.0 3.1 11.2 168
15/01/2020 6:40 5.4 69 0.0 0 0.0 2.7 9.9 168
15/01/2020 6:50 5.3 70 0.0 0 0.0 2.8 10.1 162
15/01/2020 7:00 5.4 71 0.0 0 0.0 2.6 9.4 153
15/01/2020 7:10 5.3 71 0.0 0 0.0 1.3 4.8 132
15/01/2020 7:20 5.0 72 0.0 0 0.0 0.7 2.6 119
15/01/2020 7:30 4.9 73 0.0 0 0.0 1.1 4.0 142
15/01/2020 7:40 4.8 73 0.0 0 0.0 1.3 4.6 148
15/01/2020 7:50 4.8 74 0.0 0 0.0 0.8 2.8 118
15/01/2020 8:00 4.8 74 0.0 0 0.0 0.7 2.4 116
15/01/2020 8:10 4.9 74 9.5 0 0.0 0.9 3.1 100
15/01/2020 8:20 5.0 73 0.0 0 0.0 1.1 4.1 92
15/01/2020 8:30 5.2 73 9.0 0 0.0 0.7 2.4 103
15/01/2020 8:40 5.1 74 18.3 0 0.0 0.8 3.0 150
15/01/2020 8:50 5.2 74 22.2 0 0.0 1.3 4.7 138
15/01/2020 9:00 5.3 75 29.7 0 0.0 2.3 8.3 157
15/01/2020 9:10 5.5 75 39.9 0 0.0 1.7 6.2 150
15/01/2020 9:20 5.8 73 45.4 0 0.0 2.2 7.8 166
15/01/2020 9:30 6.0 73 59.5 0 0.0 2.7 9.9 167
15/01/2020 9:40 6.2 74 69.4 0 0.0 2.1 7.5 161
15/01/2020 9:50 6.5 72 72.0 0 0.0 1.7 6.2 156
15/01/2020 10:00 6.7 73 64.4 0 0.0 1.3 4.5 139
15/01/2020 10:10 6.8 72 63.0 0 0.0 2.4 8.5 153
15/01/2020 10:20 6.9 72 68.0 0 0.0 1.8 6.6 146
15/01/2020 10:30 7.0 72 95.7 0 0.0 1.1 4.1 130
15/01/2020 10:40 7.2 72 97.9 0 0.0 1.0 3.5 127
15/01/2020 10:50 7.3 71 112.5 0 0.0 1.7 6.0 152
15/01/2020 11:00 7.4 70 105.4 0 0.0 2.1 7.6 146
15/01/2020 11:10 7.5 70 150.2 0 0.0 2.0 7.3 133
15/01/2020 11:20 7.7 70 170.9 0 0.0 2.1 7.7 145
15/01/2020 11:30 7.8 69 151.4 0 0.0 1.9 6.9 141
15/01/2020 11:40 7.8 70 134.3 0 0.0 2.0 7.1 145
15/01/2020 11:50 7.7 69 134.9 0 0.0 2.9 10.3 158
15/01/2020 12:00 7.7 69 123.0 0 0.0 2.7 9.5 153
15/01/2020 12:10 7.6 70 105.9 0 0.0 1.9 6.9 159
15/01/2020 12:20 7.7 70 82.9 0 0.0 1.9 6.9 160
15/01/2020 12:30 7.7 69 99.2 0 0.0 2.2 7.8 144
15/01/2020 12:40 7.8 70 90.0 0 0.0 1.2 4.2 132
15/01/2020 12:50 7.8 69 71.0 0 0.0 2.5 8.9 158
15/01/2020 13:00 7.7 69 65.0 0 0.0 2.4 8.5 158
15/01/2020 13:10 7.6 70 63.2 0 0.0 1.7 6.3 160
15/01/2020 13:20 7.6 70 84.0 0 0.0 1.9 6.8 151
15/01/2020 13:30 7.7 71 123.0 0 0.0 1.3 4.7 130
15/01/2020 13:40 8.1 70 176.2 0 0.0 1.2 4.2 99
15/01/2020 13:50 8.4 68 187.6 0 0.0 1.4 5.1 125
15/01/2020 14:00 8.5 68 167.1 0 0.0 1.4 4.9 132
15/01/2020 14:10 8.6 68 174.8 0 0.0 1.3 4.6 139
15/01/2020 14:20 8.6 68 151.9 0 0.0 1.2 4.4 123
15/01/2020 14:30 8.7 68 178.0 128 0.0 1.5 5.4 145
15/01/2020 14:40 9.4 67 269.8 546 0.0 1.3 4.5 148
15/01/2020 14:50 9.0 66 131.9 0 0.0 1.8 6.6 157
15/01/2020 15:00 8.6 68 113.4 0 0.0 1.5 5.3 155
15/01/2020 15:10 8.7 69 92.4 0 0.0 1.5 5.4 157
15/01/2020 15:20 8.7 69 62.0 0 0.0 1.0 3.5 124
15/01/2020 15:30 8.8 69 51.8 0 0.0 0.5 1.7 147
15/01/2020 15:40 8.8 70 49.7 0 0.0 1.8 6.3 177
15/01/2020 15:50 8.8 69 79.6 26 0.0 2.1 7.7 175
15/01/2020 16:00 8.9 69 94.1 600 0.0 2.2 8.0 175
15/01/2020 16:10 9.0 68 92.3 600 0.0 1.7 6.0 178
15/01/2020 16:20 9.1 68 92.8 600 0.0 2.1 7.5 172
15/01/2020 16:30 9.2 67 53.7 582 0.0 0.7 2.4 111
15/01/2020 16:40 9.1 67 29.5 242 0.0 0.6 2.3 91
15/01/2020 16:50 8.5 70 5.3 0 0.0 0.7 2.4 159
15/01/2020 17:00 7.8 72 0.0 0 0.0 0.4 1.3 70
15/01/2020 17:10 7.6 73 0.0 0 0.0 0.5 1.8 79
15/01/2020 17:20 7.5 74 0.0 0 0.0 0.6 2.3 90
15/01/2020 17:30 7.4 74 0.0 0 0.0 1.5 5.4 46
15/01/2020 17:40 7.1 75 0.0 0 0.0 0.3 1.0 122
15/01/2020 17:50 6.5 78 0.0 0 0.0 0.4 1.3 123
15/01/2020 18:00 6.3 78 0.0 0 0.0 0.6 2.3 349
15/01/2020 18:10 6.1 80 0.0 0 0.0 0.9 3.2 25
15/01/2020 18:20 6.5 78 0.0 0 0.0 1.2 4.3 71
15/01/2020 18:30 6.4 78 0.0 0 0.0 0.6 2.0 91
15/01/2020 18:40 5.9 80 0.0 0 0.0 0.5 1.8 131
15/01/2020 18:50 4.4 84 0.0 0 0.0 0.8 2.9 331
15/01/2020 19:00 3.9 88 0.0 0 0.0 1.0 3.5 349
15/01/2020 19:10 5.4 84 0.0 0 0.0 0.9 3.2 16
15/01/2020 19:20 5.5 80 0.0 0 0.0 0.1 0.5 258
15/01/2020 19:30 3.6 86 0.0 0 0.0 1.0 3.5 317
15/01/2020 19:40 3.0 91 0.0 0 0.0 1.6 5.6 327
15/01/2020 19:50 3.3 91 0.0 0 0.0 1.4 5.1 331
15/01/2020 20:00 3.9 85 0.0 0 0.0 0.8 2.7 9
15/01/2020 20:10 3.2 90 0.0 0 0.0 0.8 2.9 136
15/01/2020 20:20 3.2 90 0.0 0 0.0 1.0 3.5 134
15/01/2020 20:30 2.4 90 0.0 0 0.0 0.4 1.4 211
15/01/2020 20:40 1.9 93 0.0 0 0.0 0.1 0.4 138
15/01/2020 20:50 2.3 95 0.0 0 0.0 0.1 0.4 348
15/01/2020 21:00 2.6 94 0.0 0 0.0 0.4 1.5 335
15/01/2020 21:10 2.5 93 0.0 0 0.0 0.4 1.5 300
15/01/2020 21:20 1.6 93 0.0 0 0.0 0.9 3.4 354
15/01/2020 21:30 2.1 95 0.0 0 0.0 0.9 3.3 329
15/01/2020 21:40 2.3 94 0.0 0 0.0 0.2 0.8 1
15/01/2020 21:50 2.6 95 0.0 0 0.0 0.6 2.2 56
15/01/2020 22:00 2.5 94 0.0 0 0.0 0.3 0.9 283
15/01/2020 22:10 1.8 92 0.0 0 0.0 0.6 2.0 295
15/01/2020 22:20 1.6 95 0.0 0 0.0 0.5 1.8 110
15/01/2020 22:30 1.3 95 0.0 0 0.0 0.9 3.1 255
15/01/2020 22:40 2.4 97 0.0 0 0.0 0.1 0.2 187
15/01/2020 22:50 2.8 93 0.0 0 0.0 0.4 1.3 134
15/01/2020 23:00 2.8 94 0.0 0 0.0 0.8 3.0 106
15/01/2020 23:10 2.8 92 0.0 0 0.0 0.7 2.5 131
15/01/2020 23:20 3.0 93 0.0 0 0.0 0.8 3.0 116
15/01/2020 23:30 2.6 92 0.0 0 0.0 0.6 2.1 101
15/01/2020 23:40 3.1 94 0.0 0 0.0 0.7 2.7 154
15/01/2020 23:50 3.1 92 0.0 0 0.0 1.4 4.9 170
Anterior Página 1 de 1 Siguiente

NOTA: Tipo de datos según el color:
   - Valores diarios o 10 minutos correctos
   - Valores diarios calculados a partir de un número de datos 10 minutos menor que 144 y mayor que 120, o de un número de datos semihorarios menor que 48 y mayor que 40 (caso de las estaciones de Riegos de Navarra y del MARM)
   - Valores diez minutos estimados


Contacto        Enlaces        Aviso legal